الصفحة الرئيسية
METAR-TAF:

METAR-TAF

مطار :

أديليد, أستراليا

دائرة عرض: 34-56S, خط طول: 138-31E, ارتفاع: 6 متر

مراقبة الطقس الحالي

تاريخ ووقت الإصدار 29 دقيقة قبل الساعة 15:30UTC
رياح هادئة
درجة الحرارة 13°درجة مئوية
الرطوبة 88%
ضغط 1029 hPa
الرؤية 10 كم أو أكثر
غيوم قليلة على ارتفاع 2000 قدم
غيوم مفككة على ارتفاع 4300 قدم

METAR: YPAD 221530Z 00000KT 9999 FEW020 BKN043 13/11 Q1029 NOSIG

زمن: 01:29 (15:59 UTC)

توقعات

تاريخ ووقت الإصدار 4ساعات و 53 دقيقة قبل الساعة 11:06UTC
التوقعات صالحة من22 الساعة 12 UTC إلى 23 الساعة 18 UTC
ريح 5 عقدة من الجنوب/الجنوب الشرقي
الرؤية 10 كم أو أكثر
غيوم متفرقة على ارتفاع 2000 قدم
غيوم مفككة على ارتفاع 3000 قدم
من 23 الساعة 0000 UTC
ريح 8 عقدة من الغرب/الجنوب الغربي
الرؤية 10 كم أو أكثر
غيوم مفككة على ارتفاع 3000 قدم
زخات من الأمطار الخفيفة
من 23 الساعة 0900 UTC
ريح 5 عقدة من الجنوب الشرقي
الرؤية 10 كم أو أكثر
غيوم قليلة على ارتفاع 2000 قدم
غيوم مفككة على ارتفاع 3000 قدم

TAF: YPAD 221106Z 2212/2318 15005KT 9999 SCT020 BKN030 FM230000 24008KT 9999 -SHRA BKN030 FM230900 13005KT 9999 FEW020 BKN030

أرصاد الطقس والتوقعات من أكثر من 4000 مطار (تقارير الطقس للمطار METAR والتنبؤ بالطقس بالمطارTAF).

المحطات المتاحة هي النقط الصفراء والحمراء على الخريطة.

حرك المؤشر فوق النقطة لمعرفة اسم المحطة.

ثم انقر لمعرفة أرصاد وتوقعات الطقس.

لتغيير الخارطة: اضغط على الأزرار الخضراء مع رمز الصليب الأسود للتكبير. على الزر الأخضر مع شرطة للتصغير، أو على الأسهم الخضراء للخرائط المجاورة.


METAR-TAF: